KFFT/FFT METAR and TAF weather

Enter ICAO airport designator
Station Type Date Time Source
KFFT METAR 2022/09/26 08:53 UTC NOAA

KFFT 260853Z AUTO 24006KT 10SM FEW070 BKN090 14/11 A2983 RMK AO2 SLP096 T01390106 56011


Station Type Date Time Source
KFFT Decoded METAR 2022/09/26 08:53 UTC NOAA

FRANKFORT CAPITAL CITY AIRPORT , KY, United States (KFFT) 38-11N 84-54W 236M
Sep 26, 2022 - 04:53 AM EDT / 2022.09.26 0853 UTC
Wind: from the WSW (240 degrees) at 7 MPH (6 KT):0
Visibility: 10 mile(s):0
Sky conditions: mostly cloudy
Temperature: 57.0 F (13.9 C)
Dew Point: 51.1 F (10.6 C)
Relative Humidity: 80%
Pressure (altimeter): 29.83 in. Hg (1010 hPa)
Pressure tendency: 0.03 inches (1.1 hPa) lower than three hours ago
ob: KFFT 260853Z AUTO 24006KT 10SM FEW070 BKN090 14/11 A2983 RMK AO2 SLP096 T01390106 56011
cycle: 9

Station Type Date Time Source
KFFT TAF UTC NOAA

Error!

Example: see airport list